sensor_id;sensor_type;location;lat;lon;timestamp;P1;durP1;ratioP1;P2;durP2;ratioP2
22287;SDS011;11312;51.464;6.968;2022-08-18T00:02:20;9.48;;;3.17;;
22287;SDS011;11312;51.464;6.968;2022-08-18T00:04:51;5.10;;;2.10;;
22287;SDS011;11312;51.464;6.968;2022-08-18T00:07:19;10.70;;;3.95;;
22287;SDS011;11312;51.464;6.968;2022-08-18T00:09:55;8.98;;;3.10;;
22287;SDS011;11312;51.464;6.968;2022-08-18T00:12:27;7.45;;;2.70;;
22287;SDS011;11312;51.464;6.968;2022-08-18T00:14:55;4.93;;;1.88;;
22287;SDS011;11312;51.464;6.968;2022-08-18T00:17:21;6.43;;;2.33;;
22287;SDS011;11312;51.464;6.968;2022-08-18T00:19:47;9.20;;;3.25;;
22287;SDS011;11312;51.464;6.968;2022-08-18T00:22:17;7.22;;;2.67;;
22287;SDS011;11312;51.464;6.968;2022-08-18T00:24:45;5.95;;;1.98;;
22287;SDS011;11312;51.464;6.968;2022-08-18T00:27:13;9.05;;;2.70;;
22287;SDS011;11312;51.464;6.968;2022-08-18T00:29:39;8.68;;;2.92;;
22287;SDS011;11312;51.464;6.968;2022-08-18T00:32:15;8.70;;;3.88;;
22287;SDS011;11312;51.464;6.968;2022-08-18T00:34:43;8.52;;;3.47;;
22287;SDS011;11312;51.464;6.968;2022-08-18T00:37:08;7.15;;;3.05;;
22287;SDS011;11312;51.464;6.968;2022-08-18T00:39:34;8.93;;;2.95;;
22287;SDS011;11312;51.464;6.968;2022-08-18T00:44:43;9.70;;;4.18;;
22287;SDS011;11312;51.464;6.968;2022-08-18T00:47:08;7.28;;;3.20;;
22287;SDS011;11312;51.464;6.968;2022-08-18T00:49:35;7.45;;;2.92;;
22287;SDS011;11312;51.464;6.968;2022-08-18T00:52:02;6.07;;;2.65;;
22287;SDS011;11312;51.464;6.968;2022-08-18T00:54:29;8.65;;;3.05;;
22287;SDS011;11312;51.464;6.968;2022-08-18T00:56:57;9.30;;;3.80;;
22287;SDS011;11312;51.464;6.968;2022-08-18T00:59:34;4.07;;;1.92;;
22287;SDS011;11312;51.464;6.968;2022-08-18T01:02:09;10.43;;;4.10;;
22287;SDS011;11312;51.464;6.968;2022-08-18T01:04:44;13.93;;;3.85;;
22287;SDS011;11312;51.464;6.968;2022-08-18T01:07:38;7.57;;;2.63;;
22287;SDS011;11312;51.464;6.968;2022-08-18T01:10:10;12.35;;;4.13;;
22287;SDS011;11312;51.464;6.968;2022-08-18T01:12:41;9.68;;;4.22;;
22287;SDS011;11312;51.464;6.968;2022-08-18T01:15:12;11.98;;;4.88;;
22287;SDS011;11312;51.464;6.968;2022-08-18T01:17:40;10.10;;;4.07;;
22287;SDS011;11312;51.464;6.968;2022-08-18T01:20:29;6.88;;;2.58;;
22287;SDS011;11312;51.464;6.968;2022-08-18T01:23:19;8.45;;;3.20;;
22287;SDS011;11312;51.464;6.968;2022-08-18T01:25:46;10.18;;;4.40;;
22287;SDS011;11312;51.464;6.968;2022-08-18T01:31:38;6.97;;;3.17;;
22287;SDS011;11312;51.464;6.968;2022-08-18T01:34:08;14.13;;;5.90;;
22287;SDS011;11312;51.464;6.968;2022-08-18T01:36:35;11.27;;;4.32;;
22287;SDS011;11312;51.464;6.968;2022-08-18T01:39:05;9.32;;;3.58;;
22287;SDS011;11312;51.464;6.968;2022-08-18T01:41:33;14.70;;;5.03;;
22287;SDS011;11312;51.464;6.968;2022-08-18T01:43:59;8.45;;;3.60;;
22287;SDS011;11312;51.464;6.968;2022-08-18T01:46:27;10.35;;;3.38;;
22287;SDS011;11312;51.464;6.968;2022-08-18T01:48:54;10.73;;;3.72;;
22287;SDS011;11312;51.464;6.968;2022-08-18T01:51:22;10.98;;;3.47;;
22287;SDS011;11312;51.464;6.968;2022-08-18T01:53:48;15.07;;;3.95;;
22287;SDS011;11312;51.464;6.968;2022-08-18T01:56:14;8.73;;;4.13;;
22287;SDS011;11312;51.464;6.968;2022-08-18T01:58:42;7.32;;;3.35;;
22287;SDS011;11312;51.464;6.968;2022-08-18T02:01:08;8.13;;;2.97;;
22287;SDS011;11312;51.464;6.968;2022-08-18T02:03:38;8.88;;;3.38;;
22287;SDS011;11312;51.464;6.968;2022-08-18T02:06:09;8.90;;;3.83;;
22287;SDS011;11312;51.464;6.968;2022-08-18T02:08:37;9.15;;;3.95;;
22287;SDS011;11312;51.464;6.968;2022-08-18T02:11:04;8.40;;;3.15;;
22287;SDS011;11312;51.464;6.968;2022-08-18T02:13:31;12.80;;;4.38;;
22287;SDS011;11312;51.464;6.968;2022-08-18T02:15:58;10.77;;;3.90;;
22287;SDS011;11312;51.464;6.968;2022-08-18T02:18:25;7.97;;;3.20;;
22287;SDS011;11312;51.464;6.968;2022-08-18T02:20:53;6.95;;;2.72;;
22287;SDS011;11312;51.464;6.968;2022-08-18T02:23:19;6.28;;;2.95;;
22287;SDS011;11312;51.464;6.968;2022-08-18T02:25:45;8.65;;;3.08;;
22287;SDS011;11312;51.464;6.968;2022-08-18T02:28:11;10.77;;;3.60;;
22287;SDS011;11312;51.464;6.968;2022-08-18T02:30:37;7.25;;;3.05;;
22287;SDS011;11312;51.464;6.968;2022-08-18T02:33:04;5.70;;;2.75;;
22287;SDS011;11312;51.464;6.968;2022-08-18T02:35:30;7.40;;;2.83;;
22287;SDS011;11312;51.464;6.968;2022-08-18T02:37:59;10.02;;;3.08;;
22287;SDS011;11312;51.464;6.968;2022-08-18T02:40:26;6.90;;;2.47;;
22287;SDS011;11312;51.464;6.968;2022-08-18T02:42:52;9.15;;;3.55;;
22287;SDS011;11312;51.464;6.968;2022-08-18T02:45:18;8.10;;;3.10;;
22287;SDS011;11312;51.464;6.968;2022-08-18T02:47:44;8.60;;;3.08;;
22287;SDS011;11312;51.464;6.968;2022-08-18T02:50:17;10.68;;;4.40;;
22287;SDS011;11312;51.464;6.968;2022-08-18T02:52:42;15.57;;;5.07;;
22287;SDS011;11312;51.464;6.968;2022-08-18T02:55:09;8.32;;;3.83;;
22287;SDS011;11312;51.464;6.968;2022-08-18T02:57:35;8.60;;;3.03;;
22287;SDS011;11312;51.464;6.968;2022-08-18T03:00:06;8.98;;;3.88;;
22287;SDS011;11312;51.464;6.968;2022-08-18T03:02:34;7.72;;;3.60;;
22287;SDS011;11312;51.464;6.968;2022-08-18T03:05:00;10.65;;;4.05;;
22287;SDS011;11312;51.464;6.968;2022-08-18T03:07:25;21.77;;;4.32;;
22287;SDS011;11312;51.464;6.968;2022-08-18T03:09:51;9.88;;;3.65;;
22287;SDS011;11312;51.464;6.968;2022-08-18T03:12:17;14.00;;;5.45;;
22287;SDS011;11312;51.464;6.968;2022-08-18T03:14:42;13.48;;;5.72;;
22287;SDS011;11312;51.464;6.968;2022-08-18T03:17:08;14.02;;;5.97;;
22287;SDS011;11312;51.464;6.968;2022-08-18T03:19:34;11.60;;;5.15;;
22287;SDS011;11312;51.464;6.968;2022-08-18T03:22:00;17.20;;;6.40;;
22287;SDS011;11312;51.464;6.968;2022-08-18T03:24:26;13.63;;;6.53;;
22287;SDS011;11312;51.464;6.968;2022-08-18T03:26:53;13.05;;;6.38;;
22287;SDS011;11312;51.464;6.968;2022-08-18T03:29:21;17.95;;;6.63;;
22287;SDS011;11312;51.464;6.968;2022-08-18T03:31:48;16.20;;;6.22;;
22287;SDS011;11312;51.464;6.968;2022-08-18T03:34:14;12.45;;;5.40;;
22287;SDS011;11312;51.464;6.968;2022-08-18T03:36:45;11.50;;;4.57;;
22287;SDS011;11312;51.464;6.968;2022-08-18T03:39:11;11.43;;;4.65;;
22287;SDS011;11312;51.464;6.968;2022-08-18T03:41:39;11.75;;;4.35;;
22287;SDS011;11312;51.464;6.968;2022-08-18T03:44:07;12.88;;;5.65;;
22287;SDS011;11312;51.464;6.968;2022-08-18T03:46:33;16.58;;;7.30;;
22287;SDS011;11312;51.464;6.968;2022-08-18T03:48:59;27.42;;;5.20;;
22287;SDS011;11312;51.464;6.968;2022-08-18T03:51:27;11.35;;;4.93;;
22287;SDS011;11312;51.464;6.968;2022-08-18T03:53:56;11.25;;;5.43;;
22287;SDS011;11312;51.464;6.968;2022-08-18T03:56:25;12.27;;;5.28;;
22287;SDS011;11312;51.464;6.968;2022-08-18T03:59:20;16.98;;;6.22;;
22287;SDS011;11312;51.464;6.968;2022-08-18T04:01:46;15.50;;;5.70;;
22287;SDS011;11312;51.464;6.968;2022-08-18T04:04:14;16.42;;;6.50;;
22287;SDS011;11312;51.464;6.968;2022-08-18T04:06:45;13.50;;;5.85;;
22287;SDS011;11312;51.464;6.968;2022-08-18T04:09:14;16.92;;;7.22;;
22287;SDS011;11312;51.464;6.968;2022-08-18T04:11:41;9.85;;;4.78;;
22287;SDS011;11312;51.464;6.968;2022-08-18T04:14:09;30.70;;;6.70;;
22287;SDS011;11312;51.464;6.968;2022-08-18T04:16:36;23.77;;;8.15;;
22287;SDS011;11312;51.464;6.968;2022-08-18T04:19:03;10.77;;;4.97;;
22287;SDS011;11312;51.464;6.968;2022-08-18T04:21:33;17.98;;;4.75;;
22287;SDS011;11312;51.464;6.968;2022-08-18T04:24:01;12.43;;;4.32;;
22287;SDS011;11312;51.464;6.968;2022-08-18T04:26:29;18.17;;;4.93;;
22287;SDS011;11312;51.464;6.968;2022-08-18T04:29:00;12.25;;;4.60;;
22287;SDS011;11312;51.464;6.968;2022-08-18T04:31:27;17.17;;;6.63;;
22287;SDS011;11312;51.464;6.968;2022-08-18T04:33:55;11.65;;;4.32;;
22287;SDS011;11312;51.464;6.968;2022-08-18T04:36:22;9.38;;;4.25;;
22287;SDS011;11312;51.464;6.968;2022-08-18T04:38:49;8.43;;;3.70;;
22287;SDS011;11312;51.464;6.968;2022-08-18T04:41:15;20.70;;;6.85;;
22287;SDS011;11312;51.464;6.968;2022-08-18T04:43:41;14.02;;;5.13;;
22287;SDS011;11312;51.464;6.968;2022-08-18T04:46:07;11.82;;;5.22;;
22287;SDS011;11312;51.464;6.968;2022-08-18T04:48:34;9.75;;;3.28;;
22287;SDS011;11312;51.464;6.968;2022-08-18T04:51:24;11.48;;;4.78;;
22287;SDS011;11312;51.464;6.968;2022-08-18T04:53:50;8.13;;;3.25;;
22287;SDS011;11312;51.464;6.968;2022-08-18T04:56:26;9.43;;;3.35;;
22287;SDS011;11312;51.464;6.968;2022-08-18T04:59:05;15.60;;;4.63;;
22287;SDS011;11312;51.464;6.968;2022-08-18T05:01:34;12.05;;;5.07;;
22287;SDS011;11312;51.464;6.968;2022-08-18T05:04:01;12.63;;;4.32;;
22287;SDS011;11312;51.464;6.968;2022-08-18T05:06:28;20.42;;;4.88;;
22287;SDS011;11312;51.464;6.968;2022-08-18T05:08:55;12.75;;;4.20;;
22287;SDS011;11312;51.464;6.968;2022-08-18T05:11:23;12.23;;;4.05;;
22287;SDS011;11312;51.464;6.968;2022-08-18T05:13:50;13.40;;;5.22;;
22287;SDS011;11312;51.464;6.968;2022-08-18T05:16:16;8.45;;;3.10;;
22287;SDS011;11312;51.464;6.968;2022-08-18T05:18:42;12.65;;;4.28;;
22287;SDS011;11312;51.464;6.968;2022-08-18T05:21:08;12.27;;;4.28;;
22287;SDS011;11312;51.464;6.968;2022-08-18T05:23:40;10.27;;;4.15;;
22287;SDS011;11312;51.464;6.968;2022-08-18T05:26:07;9.63;;;3.50;;
22287;SDS011;11312;51.464;6.968;2022-08-18T05:28:33;10.60;;;3.92;;
22287;SDS011;11312;51.464;6.968;2022-08-18T05:31:11;11.38;;;4.18;;
22287;SDS011;11312;51.464;6.968;2022-08-18T05:33:39;9.90;;;4.22;;
22287;SDS011;11312;51.464;6.968;2022-08-18T05:36:09;10.05;;;3.67;;
22287;SDS011;11312;51.464;6.968;2022-08-18T05:44:18;10.32;;;4.20;;
22287;SDS011;11312;51.464;6.968;2022-08-18T05:49:23;13.55;;;4.88;;
22287;SDS011;11312;51.464;6.968;2022-08-18T05:51:56;10.75;;;4.43;;
22287;SDS011;11312;51.464;6.968;2022-08-18T05:54:25;6.45;;;3.30;;
22287;SDS011;11312;51.464;6.968;2022-08-18T05:57:15;10.75;;;4.32;;
22287;SDS011;11312;51.464;6.968;2022-08-18T05:59:43;8.80;;;3.05;;
22287;SDS011;11312;51.464;6.968;2022-08-18T06:05:31;12.35;;;4.10;;
22287;SDS011;11312;51.464;6.968;2022-08-18T06:08:03;12.73;;;4.07;;
22287;SDS011;11312;51.464;6.968;2022-08-18T06:10:31;10.82;;;4.13;;
22287;SDS011;11312;51.464;6.968;2022-08-18T06:12:57;9.73;;;4.00;;
22287;SDS011;11312;51.464;6.968;2022-08-18T06:23:31;9.00;;;3.35;;
22287;SDS011;11312;51.464;6.968;2022-08-18T06:26:06;9.15;;;3.95;;
22287;SDS011;11312;51.464;6.968;2022-08-18T06:31:32;11.15;;;4.75;;
22287;SDS011;11312;51.464;6.968;2022-08-18T06:37:15;15.88;;;5.50;;
22287;SDS011;11312;51.464;6.968;2022-08-18T06:39:47;7.18;;;3.35;;
22287;SDS011;11312;51.464;6.968;2022-08-18T06:42:16;12.13;;;4.63;;
22287;SDS011;11312;51.464;6.968;2022-08-18T06:44:49;14.20;;;3.97;;
22287;SDS011;11312;51.464;6.968;2022-08-18T06:50:04;17.13;;;5.00;;
22287;SDS011;11312;51.464;6.968;2022-08-18T06:52:53;12.55;;;4.18;;
22287;SDS011;11312;51.464;6.968;2022-08-18T06:55:30;11.93;;;4.93;;
22287;SDS011;11312;51.464;6.968;2022-08-18T06:58:02;32.15;;;5.38;;
22287;SDS011;11312;51.464;6.968;2022-08-18T07:03:21;7.30;;;3.15;;
22287;SDS011;11312;51.464;6.968;2022-08-18T07:11:18;12.23;;;4.25;;
22287;SDS011;11312;51.464;6.968;2022-08-18T07:13:53;14.02;;;4.43;;
22287;SDS011;11312;51.464;6.968;2022-08-18T07:16:30;11.68;;;3.92;;
22287;SDS011;11312;51.464;6.968;2022-08-18T07:19:06;12.35;;;4.57;;
22287;SDS011;11312;51.464;6.968;2022-08-18T07:21:37;13.15;;;4.95;;
22287;SDS011;11312;51.464;6.968;2022-08-18T07:27:07;14.25;;;6.05;;
22287;SDS011;11312;51.464;6.968;2022-08-18T07:29:36;11.40;;;5.00;;
22287;SDS011;11312;51.464;6.968;2022-08-18T07:32:14;9.73;;;4.38;;
22287;SDS011;11312;51.464;6.968;2022-08-18T07:34:45;9.85;;;3.88;;
22287;SDS011;11312;51.464;6.968;2022-08-18T07:37:19;10.23;;;2.97;;
22287;SDS011;11312;51.464;6.968;2022-08-18T07:58:54;11.48;;;4.70;;
22287;SDS011;11312;51.464;6.968;2022-08-18T08:04:02;9.18;;;2.83;;
22287;SDS011;11312;51.464;6.968;2022-08-18T08:06:54;10.77;;;4.40;;
22287;SDS011;11312;51.464;6.968;2022-08-18T08:09:43;12.90;;;4.07;;
22287;SDS011;11312;51.464;6.968;2022-08-18T08:14:54;8.52;;;3.70;;
22287;SDS011;11312;51.464;6.968;2022-08-18T08:20:57;10.02;;;3.90;;
22287;SDS011;11312;51.464;6.968;2022-08-18T08:23:33;9.70;;;4.60;;
22287;SDS011;11312;51.464;6.968;2022-08-18T08:34:26;10.38;;;4.38;;
22287;SDS011;11312;51.464;6.968;2022-08-18T08:37:01;8.73;;;3.42;;
22287;SDS011;11312;51.464;6.968;2022-08-18T08:42:04;10.30;;;4.35;;
22287;SDS011;11312;51.464;6.968;2022-08-18T08:47:20;9.38;;;4.32;;
22287;SDS011;11312;51.464;6.968;2022-08-18T08:49:50;16.70;;;4.30;;
22287;SDS011;11312;51.464;6.968;2022-08-18T08:52:22;9.95;;;3.90;;
22287;SDS011;11312;51.464;6.968;2022-08-18T08:54:59;7.93;;;2.78;;
22287;SDS011;11312;51.464;6.968;2022-08-18T08:57:30;10.60;;;3.50;;
22287;SDS011;11312;51.464;6.968;2022-08-18T09:00:06;9.02;;;4.63;;
22287;SDS011;11312;51.464;6.968;2022-08-18T09:02:44;8.05;;;2.83;;
22287;SDS011;11312;51.464;6.968;2022-08-18T09:05:34;9.15;;;4.03;;
22287;SDS011;11312;51.464;6.968;2022-08-18T09:08:19;7.80;;;3.17;;
22287;SDS011;11312;51.464;6.968;2022-08-18T09:16:36;9.98;;;3.22;;
22287;SDS011;11312;51.464;6.968;2022-08-18T09:25:27;9.15;;;3.38;;
22287;SDS011;11312;51.464;6.968;2022-08-18T09:28:58;12.10;;;4.15;;
22287;SDS011;11312;51.464;6.968;2022-08-18T09:36:21;8.30;;;2.95;;
22287;SDS011;11312;51.464;6.968;2022-08-18T09:38:56;6.45;;;2.75;;
22287;SDS011;11312;51.464;6.968;2022-08-18T09:41:50;10.68;;;3.38;;
22287;SDS011;11312;51.464;6.968;2022-08-18T09:49:50;10.88;;;4.18;;
22287;SDS011;11312;51.464;6.968;2022-08-18T09:57:27;7.82;;;3.17;;
22287;SDS011;11312;51.464;6.968;2022-08-18T10:07:40;6.70;;;2.60;;
22287;SDS011;11312;51.464;6.968;2022-08-18T10:10:18;5.53;;;2.65;;
22287;SDS011;11312;51.464;6.968;2022-08-18T10:16:03;10.35;;;3.78;;
22287;SDS011;11312;51.464;6.968;2022-08-18T10:18:54;9.43;;;3.47;;
22287;SDS011;11312;51.464;6.968;2022-08-18T10:24:29;8.57;;;3.25;;
22287;SDS011;11312;51.464;6.968;2022-08-18T10:27:07;9.60;;;3.90;;
22287;SDS011;11312;51.464;6.968;2022-08-18T10:29:56;9.77;;;2.85;;
22287;SDS011;11312;51.464;6.968;2022-08-18T10:32:23;8.15;;;3.15;;
22287;SDS011;11312;51.464;6.968;2022-08-18T10:35:00;6.80;;;2.97;;
22287;SDS011;11312;51.464;6.968;2022-08-18T10:37:45;9.07;;;3.38;;
22287;SDS011;11312;51.464;6.968;2022-08-18T10:40:13;9.10;;;3.08;;
22287;SDS011;11312;51.464;6.968;2022-08-18T10:45:29;6.60;;;3.13;;
22287;SDS011;11312;51.464;6.968;2022-08-18T10:53:37;10.75;;;3.85;;
22287;SDS011;11312;51.464;6.968;2022-08-18T11:07:05;8.10;;;2.70;;
22287;SDS011;11312;51.464;6.968;2022-08-18T11:09:36;5.43;;;2.00;;
22287;SDS011;11312;51.464;6.968;2022-08-18T11:12:03;7.07;;;2.95;;
22287;SDS011;11312;51.464;6.968;2022-08-18T11:20:29;2.88;;;1.42;;
22287;SDS011;11312;51.464;6.968;2022-08-18T11:22:56;4.90;;;2.05;;
22287;SDS011;11312;51.464;6.968;2022-08-18T11:25:26;4.25;;;2.10;;
22287;SDS011;11312;51.464;6.968;2022-08-18T11:27:56;2.95;;;1.30;;
22287;SDS011;11312;51.464;6.968;2022-08-18T11:30:24;5.72;;;2.10;;
22287;SDS011;11312;51.464;6.968;2022-08-18T11:32:53;4.30;;;1.67;;
22287;SDS011;11312;51.464;6.968;2022-08-18T11:35:20;2.17;;;1.00;;
22287;SDS011;11312;51.464;6.968;2022-08-18T11:37:58;4.80;;;1.58;;
22287;SDS011;11312;51.464;6.968;2022-08-18T11:40:28;2.70;;;1.27;;
22287;SDS011;11312;51.464;6.968;2022-08-18T11:45:35;3.17;;;1.45;;
22287;SDS011;11312;51.464;6.968;2022-08-18T11:51:00;6.68;;;2.13;;
22287;SDS011;11312;51.464;6.968;2022-08-18T11:58:39;1.40;;;0.95;;
22287;SDS011;11312;51.464;6.968;2022-08-18T12:04:12;2.47;;;1.23;;
22287;SDS011;11312;51.464;6.968;2022-08-18T12:06:55;4.03;;;1.58;;
22287;SDS011;11312;51.464;6.968;2022-08-18T12:09:33;4.03;;;1.50;;
22287;SDS011;11312;51.464;6.968;2022-08-18T12:12:03;2.63;;;1.60;;
22287;SDS011;11312;51.464;6.968;2022-08-18T12:14:32;4.55;;;1.55;;
22287;SDS011;11312;51.464;6.968;2022-08-18T12:17:14;2.83;;;1.15;;
22287;SDS011;11312;51.464;6.968;2022-08-18T12:19:39;1.23;;;0.80;;
22287;SDS011;11312;51.464;6.968;2022-08-18T12:22:11;1.02;;;0.80;;
22287;SDS011;11312;51.464;6.968;2022-08-18T12:24:46;0.68;;;0.68;;
22287;SDS011;11312;51.464;6.968;2022-08-18T12:27:13;1.20;;;0.80;;
22287;SDS011;11312;51.464;6.968;2022-08-18T12:29:41;2.13;;;1.00;;
22287;SDS011;11312;51.464;6.968;2022-08-18T12:32:07;2.65;;;0.90;;
22287;SDS011;11312;51.464;6.968;2022-08-18T12:34:33;3.33;;;1.70;;
22287;SDS011;11312;51.464;6.968;2022-08-18T12:36:59;1.85;;;1.02;;
22287;SDS011;11312;51.464;6.968;2022-08-18T12:39:25;2.03;;;0.90;;
22287;SDS011;11312;51.464;6.968;2022-08-18T12:41:51;2.05;;;0.90;;
22287;SDS011;11312;51.464;6.968;2022-08-18T12:44:17;0.85;;;0.75;;
22287;SDS011;11312;51.464;6.968;2022-08-18T12:46:42;5.15;;;1.80;;
22287;SDS011;11312;51.464;6.968;2022-08-18T12:49:19;3.50;;;1.27;;
22287;SDS011;11312;51.464;6.968;2022-08-18T12:51:47;2.67;;;0.98;;
22287;SDS011;11312;51.464;6.968;2022-08-18T12:54:14;2.58;;;1.20;;
22287;SDS011;11312;51.464;6.968;2022-08-18T12:56:40;1.00;;;0.80;;
22287;SDS011;11312;51.464;6.968;2022-08-18T12:59:07;2.40;;;1.10;;
22287;SDS011;11312;51.464;6.968;2022-08-18T13:01:34;2.65;;;0.98;;
22287;SDS011;11312;51.464;6.968;2022-08-18T13:04:01;2.75;;;1.30;;
22287;SDS011;11312;51.464;6.968;2022-08-18T13:06:27;5.07;;;1.83;;
22287;SDS011;11312;51.464;6.968;2022-08-18T13:08:54;3.33;;;1.52;;
22287;SDS011;11312;51.464;6.968;2022-08-18T13:11:20;1.88;;;0.85;;
22287;SDS011;11312;51.464;6.968;2022-08-18T13:13:47;1.23;;;0.90;;
22287;SDS011;11312;51.464;6.968;2022-08-18T13:16:13;1.30;;;0.77;;
22287;SDS011;11312;51.464;6.968;2022-08-18T13:18:39;2.17;;;0.98;;
22287;SDS011;11312;51.464;6.968;2022-08-18T13:21:06;1.98;;;0.98;;
22287;SDS011;11312;51.464;6.968;2022-08-18T13:23:34;3.85;;;1.55;;
22287;SDS011;11312;51.464;6.968;2022-08-18T13:26:00;1.95;;;0.98;;
22287;SDS011;11312;51.464;6.968;2022-08-18T13:28:27;1.40;;;0.77;;
22287;SDS011;11312;51.464;6.968;2022-08-18T13:30:54;4.85;;;1.65;;
22287;SDS011;11312;51.464;6.968;2022-08-18T13:33:19;2.28;;;1.20;;
22287;SDS011;11312;51.464;6.968;2022-08-18T13:35:46;1.15;;;0.70;;
22287;SDS011;11312;51.464;6.968;2022-08-18T13:38:13;1.38;;;0.73;;
22287;SDS011;11312;51.464;6.968;2022-08-18T13:40:39;3.20;;;1.20;;
22287;SDS011;11312;51.464;6.968;2022-08-18T13:43:06;1.42;;;0.80;;
22287;SDS011;11312;51.464;6.968;2022-08-18T13:45:33;1.98;;;0.93;;
22287;SDS011;11312;51.464;6.968;2022-08-18T13:47:59;2.05;;;0.80;;
22287;SDS011;11312;51.464;6.968;2022-08-18T13:50:24;2.80;;;1.10;;
22287;SDS011;11312;51.464;6.968;2022-08-18T13:52:50;1.45;;;0.77;;
22287;SDS011;11312;51.464;6.968;2022-08-18T13:55:17;1.88;;;0.82;;
22287;SDS011;11312;51.464;6.968;2022-08-18T13:57:43;1.70;;;0.65;;
22287;SDS011;11312;51.464;6.968;2022-08-18T14:00:14;3.25;;;1.15;;
22287;SDS011;11312;51.464;6.968;2022-08-18T14:02:42;1.45;;;0.75;;
22287;SDS011;11312;51.464;6.968;2022-08-18T14:05:08;2.55;;;1.20;;
22287;SDS011;11312;51.464;6.968;2022-08-18T14:07:34;1.02;;;0.52;;
22287;SDS011;11312;51.464;6.968;2022-08-18T14:10:01;3.67;;;1.30;;
22287;SDS011;11312;51.464;6.968;2022-08-18T14:12:32;2.08;;;0.90;;
22287;SDS011;11312;51.464;6.968;2022-08-18T14:15:00;2.40;;;0.93;;
22287;SDS011;11312;51.464;6.968;2022-08-18T14:17:26;0.88;;;0.47;;
22287;SDS011;11312;51.464;6.968;2022-08-18T14:19:52;2.50;;;0.93;;
22287;SDS011;11312;51.464;6.968;2022-08-18T14:22:36;1.90;;;0.88;;
22287;SDS011;11312;51.464;6.968;2022-08-18T14:25:20;2.70;;;1.23;;
22287;SDS011;11312;51.464;6.968;2022-08-18T14:28:05;2.30;;;0.90;;
22287;SDS011;11312;51.464;6.968;2022-08-18T14:30:33;3.20;;;0.90;;
22287;SDS011;11312;51.464;6.968;2022-08-18T14:32:59;0.43;;;0.32;;
22287;SDS011;11312;51.464;6.968;2022-08-18T14:35:25;9.32;;;0.88;;
22287;SDS011;11312;51.464;6.968;2022-08-18T14:37:50;1.95;;;0.57;;
22287;SDS011;11312;51.464;6.968;2022-08-18T14:40:16;0.50;;;0.40;;
22287;SDS011;11312;51.464;6.968;2022-08-18T14:42:44;1.92;;;0.77;;
22287;SDS011;11312;51.464;6.968;2022-08-18T14:45:12;1.73;;;0.65;;
22287;SDS011;11312;51.464;6.968;2022-08-18T14:47:39;1.02;;;0.50;;
22287;SDS011;11312;51.464;6.968;2022-08-18T14:50:06;1.23;;;0.60;;
22287;SDS011;11312;51.464;6.968;2022-08-18T14:52:37;1.42;;;0.65;;
22287;SDS011;11312;51.464;6.968;2022-08-18T14:55:04;1.23;;;0.65;;
22287;SDS011;11312;51.464;6.968;2022-08-18T14:57:30;1.65;;;0.57;;
22287;SDS011;11312;51.464;6.968;2022-08-18T14:59:55;2.08;;;0.95;;
22287;SDS011;11312;51.464;6.968;2022-08-18T15:02:21;1.48;;;0.52;;
22287;SDS011;11312;51.464;6.968;2022-08-18T15:04:47;1.55;;;0.57;;
22287;SDS011;11312;51.464;6.968;2022-08-18T15:07:12;2.45;;;0.90;;
22287;SDS011;11312;51.464;6.968;2022-08-18T15:09:38;0.20;;;0.20;;
22287;SDS011;11312;51.464;6.968;2022-08-18T15:12:04;2.35;;;0.95;;
22287;SDS011;11312;51.464;6.968;2022-08-18T15:14:31;4.20;;;1.17;;
22287;SDS011;11312;51.464;6.968;2022-08-18T15:16:58;0.77;;;0.45;;
22287;SDS011;11312;51.464;6.968;2022-08-18T15:19:25;2.58;;;0.95;;
22287;SDS011;11312;51.464;6.968;2022-08-18T15:21:51;1.13;;;0.77;;
22287;SDS011;11312;51.464;6.968;2022-08-18T15:24:39;1.38;;;0.90;;
22287;SDS011;11312;51.464;6.968;2022-08-18T15:27:28;0.22;;;0.22;;
22287;SDS011;11312;51.464;6.968;2022-08-18T15:30:09;0.77;;;0.50;;
22287;SDS011;11312;51.464;6.968;2022-08-18T15:32:41;0.60;;;0.45;;
22287;SDS011;11312;51.464;6.968;2022-08-18T15:35:08;1.13;;;0.50;;
22287;SDS011;11312;51.464;6.968;2022-08-18T15:37:34;1.20;;;0.63;;
22287;SDS011;11312;51.464;6.968;2022-08-18T15:40:06;0.40;;;0.40;;
22287;SDS011;11312;51.464;6.968;2022-08-18T15:42:44;2.38;;;1.00;;
22287;SDS011;11312;51.464;6.968;2022-08-18T15:45:24;1.33;;;0.85;;
22287;SDS011;11312;51.464;6.968;2022-08-18T15:47:51;2.38;;;0.93;;
22287;SDS011;11312;51.464;6.968;2022-08-18T15:50:18;0.55;;;0.47;;
22287;SDS011;11312;51.464;6.968;2022-08-18T15:52:55;1.90;;;0.98;;
22287;SDS011;11312;51.464;6.968;2022-08-18T15:55:23;1.58;;;0.70;;
22287;SDS011;11312;51.464;6.968;2022-08-18T15:57:50;0.22;;;0.22;;
22287;SDS011;11312;51.464;6.968;2022-08-18T16:00:16;0.63;;;0.40;;
22287;SDS011;11312;51.464;6.968;2022-08-18T16:02:48;1.52;;;0.80;;
22287;SDS011;11312;51.464;6.968;2022-08-18T16:05:17;1.27;;;0.63;;
22287;SDS011;11312;51.464;6.968;2022-08-18T16:07:46;2.22;;;1.00;;
22287;SDS011;11312;51.464;6.968;2022-08-18T16:10:13;1.30;;;0.70;;
22287;SDS011;11312;51.464;6.968;2022-08-18T16:12:40;2.05;;;0.90;;
22287;SDS011;11312;51.464;6.968;2022-08-18T16:15:05;2.08;;;0.90;;
22287;SDS011;11312;51.464;6.968;2022-08-18T16:17:32;2.78;;;1.10;;
22287;SDS011;11312;51.464;6.968;2022-08-18T16:19:58;0.40;;;0.35;;
22287;SDS011;11312;51.464;6.968;2022-08-18T16:22:26;2.00;;;0.82;;
22287;SDS011;11312;51.464;6.968;2022-08-18T16:24:52;2.17;;;0.90;;
22287;SDS011;11312;51.464;6.968;2022-08-18T16:27:18;0.50;;;0.50;;
22287;SDS011;11312;51.464;6.968;2022-08-18T16:29:44;0.98;;;0.57;;
22287;SDS011;11312;51.464;6.968;2022-08-18T16:32:12;0.77;;;0.65;;
22287;SDS011;11312;51.464;6.968;2022-08-18T16:34:37;1.52;;;0.73;;
22287;SDS011;11312;51.464;6.968;2022-08-18T16:37:05;1.23;;;0.75;;
22287;SDS011;11312;51.464;6.968;2022-08-18T16:39:33;1.98;;;0.88;;
22287;SDS011;11312;51.464;6.968;2022-08-18T16:41:59;0.50;;;0.43;;
22287;SDS011;11312;51.464;6.968;2022-08-18T16:44:25;0.50;;;0.50;;
22287;SDS011;11312;51.464;6.968;2022-08-18T16:46:51;0.88;;;0.57;;
22287;SDS011;11312;51.464;6.968;2022-08-18T16:49:17;1.10;;;0.55;;
22287;SDS011;11312;51.464;6.968;2022-08-18T16:51:44;5.13;;;0.93;;
22287;SDS011;11312;51.464;6.968;2022-08-18T16:54:09;1.05;;;0.60;;
22287;SDS011;11312;51.464;6.968;2022-08-18T16:56:35;1.13;;;0.52;;
22287;SDS011;11312;51.464;6.968;2022-08-18T16:59:02;0.75;;;0.60;;
22287;SDS011;11312;51.464;6.968;2022-08-18T17:01:46;1.15;;;0.55;;
22287;SDS011;11312;51.464;6.968;2022-08-18T17:04:31;0.68;;;0.50;;
22287;SDS011;11312;51.464;6.968;2022-08-18T17:07:02;1.27;;;0.70;;
22287;SDS011;11312;51.464;6.968;2022-08-18T17:09:29;0.35;;;0.30;;
22287;SDS011;11312;51.464;6.968;2022-08-18T17:11:57;0.52;;;0.52;;
22287;SDS011;11312;51.464;6.968;2022-08-18T17:14:24;0.70;;;0.50;;
22287;SDS011;11312;51.464;6.968;2022-08-18T17:16:52;0.20;;;0.20;;
22287;SDS011;11312;51.464;6.968;2022-08-18T17:19:19;0.57;;;0.52;;
22287;SDS011;11312;51.464;6.968;2022-08-18T17:21:50;3.70;;;0.90;;
22287;SDS011;11312;51.464;6.968;2022-08-18T17:24:17;0.80;;;0.45;;
22287;SDS011;11312;51.464;6.968;2022-08-18T17:29:20;1.00;;;0.75;;
22287;SDS011;11312;51.464;6.968;2022-08-18T17:31:51;13.85;;;1.67;;
22287;SDS011;11312;51.464;6.968;2022-08-18T17:34:20;0.50;;;0.50;;
22287;SDS011;11312;51.464;6.968;2022-08-18T17:36:52;1.48;;;0.85;;
22287;SDS011;11312;51.464;6.968;2022-08-18T17:39:24;0.57;;;0.57;;
22287;SDS011;11312;51.464;6.968;2022-08-18T17:42:02;1.95;;;0.80;;
22287;SDS011;11312;51.464;6.968;2022-08-18T17:44:46;1.67;;;0.85;;
22287;SDS011;11312;51.464;6.968;2022-08-18T17:47:15;0.57;;;0.55;;
22287;SDS011;11312;51.464;6.968;2022-08-18T17:49:44;1.17;;;0.60;;
22287;SDS011;11312;51.464;6.968;2022-08-18T17:52:36;1.45;;;0.68;;